sensor_id;sensor_type;location;lat;lon;timestamp;pressure;altitude;pressure_sealevel;temperature;humidity
42125;BME280;27787;44.594;11.046;2022-10-26T00:01:25;101566.34;;;16.30;100.00
42125;BME280;27787;44.594;11.046;2022-10-26T00:04:09;101560.97;;;16.39;100.00
42125;BME280;27787;44.594;11.046;2022-10-26T00:06:53;101560.94;;;16.48;100.00
42125;BME280;27787;44.594;11.046;2022-10-26T00:09:37;101553.81;;;16.53;100.00
42125;BME280;27787;44.594;11.046;2022-10-26T00:12:21;101556.47;;;16.58;100.00
42125;BME280;27787;44.594;11.046;2022-10-26T00:15:07;101559.13;;;16.59;100.00
42125;BME280;27787;44.594;11.046;2022-10-26T00:17:56;101567.13;;;16.61;100.00
42125;BME280;27787;44.594;11.046;2022-10-26T00:20:40;101572.44;;;16.64;100.00
42125;BME280;27787;44.594;11.046;2022-10-26T00:23:25;101585.78;;;16.68;100.00
42125;BME280;27787;44.594;11.046;2022-10-26T00:26:11;101572.44;;;16.67;100.00
42125;BME280;27787;44.594;11.046;2022-10-26T00:28:55;101582.25;;;16.54;100.00
42125;BME280;27787;44.594;11.046;2022-10-26T00:31:40;101588.47;;;16.48;100.00
42125;BME280;27787;44.594;11.046;2022-10-26T00:34:24;101590.22;;;16.52;100.00
42125;BME280;27787;44.594;11.046;2022-10-26T00:37:08;101592.94;;;16.54;100.00
42125;BME280;27787;44.594;11.046;2022-10-26T00:39:53;101593.78;;;16.51;100.00
42125;BME280;27787;44.594;11.046;2022-10-26T00:42:37;101592.91;;;16.56;100.00
42125;BME280;27787;44.594;11.046;2022-10-26T00:45:24;101593.81;;;16.47;100.00
42125;BME280;27787;44.594;11.046;2022-10-26T00:48:35;101588.56;;;16.32;100.00
42125;BME280;27787;44.594;11.046;2022-10-26T00:51:26;101585.03;;;16.22;100.00
42125;BME280;27787;44.594;11.046;2022-10-26T00:54:15;101586.81;;;16.15;100.00
42125;BME280;27787;44.594;11.046;2022-10-26T00:57:02;101581.47;;;16.14;100.00
42125;BME280;27787;44.594;11.046;2022-10-26T00:59:47;101585.94;;;16.09;100.00
42125;BME280;27787;44.594;11.046;2022-10-26T01:02:34;101593.06;;;16.02;100.00
42125;BME280;27787;44.594;11.046;2022-10-26T01:05:19;101594.81;;;16.00;100.00
42125;BME280;27787;44.594;11.046;2022-10-26T01:08:05;101592.19;;;15.96;100.00
42125;BME280;27787;44.594;11.046;2022-10-26T01:10:49;101591.31;;;15.92;100.00
42125;BME280;27787;44.594;11.046;2022-10-26T01:13:36;101588.63;;;15.87;100.00
42125;BME280;27787;44.594;11.046;2022-10-26T01:16:46;101583.31;;;15.84;100.00
42125;BME280;27787;44.594;11.046;2022-10-26T01:20:03;101578.00;;;15.83;100.00
42125;BME280;27787;44.594;11.046;2022-10-26T01:41:34;101561.16;;;15.78;100.00
42125;BME280;27787;44.594;11.046;2022-10-26T01:44:24;101554.06;;;15.77;100.00
42125;BME280;27787;44.594;11.046;2022-10-26T01:47:12;101555.81;;;15.78;100.00
42125;BME280;27787;44.594;11.046;2022-10-26T01:49:58;101546.03;;;15.81;100.00
42125;BME280;27787;44.594;11.046;2022-10-26T01:52:43;101548.69;;;15.92;100.00
42125;BME280;27787;44.594;11.046;2022-10-26T01:55:47;101550.47;;;15.93;100.00
42125;BME280;27787;44.594;11.046;2022-10-26T02:04:44;101539.84;;;15.90;100.00
42125;BME280;27787;44.594;11.046;2022-10-26T02:07:54;101540.72;;;15.84;100.00
42125;BME280;27787;44.594;11.046;2022-10-26T02:13:56;101536.28;;;15.79;100.00
42125;BME280;27787;44.594;11.046;2022-10-26T02:16:57;101544.28;;;15.76;100.00
42125;BME280;27787;44.594;11.046;2022-10-26T02:19:50;101530.09;;;15.77;100.00
42125;BME280;27787;44.594;11.046;2022-10-26T02:22:40;101534.53;;;15.70;100.00
42125;BME280;27787;44.594;11.046;2022-10-26T02:25:31;101531.88;;;15.66;100.00
42125;BME280;27787;44.594;11.046;2022-10-26T02:28:19;101528.31;;;15.62;100.00
42125;BME280;27787;44.594;11.046;2022-10-26T02:31:06;101532.72;;;15.57;100.00
42125;BME280;27787;44.594;11.046;2022-10-26T02:33:52;101530.09;;;15.60;100.00
42125;BME280;27787;44.594;11.046;2022-10-26T02:36:41;101528.28;;;15.59;100.00
42125;BME280;27787;44.594;11.046;2022-10-26T02:39:28;101522.97;;;15.56;100.00
42125;BME280;27787;44.594;11.046;2022-10-26T02:42:16;101527.44;;;15.52;100.00
42125;BME280;27787;44.594;11.046;2022-10-26T02:45:05;101531.84;;;15.52;100.00
42125;BME280;27787;44.594;11.046;2022-10-26T02:47:51;101531.84;;;15.53;100.00
42125;BME280;27787;44.594;11.046;2022-10-26T02:50:52;101538.06;;;15.54;100.00
42125;BME280;27787;44.594;11.046;2022-10-26T02:53:47;101538.06;;;15.52;100.00
42125;BME280;27787;44.594;11.046;2022-10-26T02:59:31;101529.19;;;15.47;100.00
42125;BME280;27787;44.594;11.046;2022-10-26T03:02:18;101529.19;;;15.55;100.00
42125;BME280;27787;44.594;11.046;2022-10-26T03:05:09;101534.53;;;15.66;100.00
42125;BME280;27787;44.594;11.046;2022-10-26T03:07:55;101537.16;;;15.58;100.00
42125;BME280;27787;44.594;11.046;2022-10-26T03:10:41;101530.97;;;15.47;100.00
42125;BME280;27787;44.594;11.046;2022-10-26T03:13:25;101532.75;;;15.40;100.00
42125;BME280;27787;44.594;11.046;2022-10-26T03:16:09;101523.88;;;15.33;100.00
42125;BME280;27787;44.594;11.046;2022-10-26T03:18:53;101526.53;;;15.33;100.00
42125;BME280;27787;44.594;11.046;2022-10-26T03:21:38;101533.63;;;15.33;100.00
42125;BME280;27787;44.594;11.046;2022-10-26T03:24:22;101530.97;;;15.30;100.00
42125;BME280;27787;44.594;11.046;2022-10-26T03:27:06;101533.63;;;15.28;100.00
42125;BME280;27787;44.594;11.046;2022-10-26T03:29:50;101533.63;;;15.25;100.00
42125;BME280;27787;44.594;11.046;2022-10-26T03:32:34;101530.09;;;15.28;100.00
42125;BME280;27787;44.594;11.046;2022-10-26T03:35:18;101533.63;;;15.30;100.00
42125;BME280;27787;44.594;11.046;2022-10-26T03:38:02;101536.28;;;15.30;100.00
42125;BME280;27787;44.594;11.046;2022-10-26T03:40:46;101531.84;;;15.35;100.00
42125;BME280;27787;44.594;11.046;2022-10-26T03:43:31;101535.38;;;15.34;100.00
42125;BME280;27787;44.594;11.046;2022-10-26T03:46:15;101545.16;;;15.35;100.00
42125;BME280;27787;44.594;11.046;2022-10-26T03:48:59;101543.38;;;15.29;100.00
42125;BME280;27787;44.594;11.046;2022-10-26T03:51:43;101551.34;;;15.23;100.00
42125;BME280;27787;44.594;11.046;2022-10-26T03:54:27;101549.56;;;15.16;100.00
42125;BME280;27787;44.594;11.046;2022-10-26T03:57:11;101552.22;;;15.10;100.00
42125;BME280;27787;44.594;11.046;2022-10-26T03:59:55;101551.34;;;15.00;100.00
42125;BME280;27787;44.594;11.046;2022-10-26T04:02:39;101543.31;;;14.94;100.00
42125;BME280;27787;44.594;11.046;2022-10-26T04:05:25;101546.00;;;14.90;100.00
42125;BME280;27787;44.594;11.046;2022-10-26T04:08:09;101544.22;;;14.86;100.00
42125;BME280;27787;44.594;11.046;2022-10-26T04:10:54;101539.75;;;14.82;100.00
42125;BME280;27787;44.594;11.046;2022-10-26T04:13:38;101524.72;;;14.87;100.00
42125;BME280;27787;44.594;11.046;2022-10-26T04:16:22;101522.94;;;14.92;100.00
42125;BME280;27787;44.594;11.046;2022-10-26T04:19:05;101519.41;;;14.94;100.00
42125;BME280;27787;44.594;11.046;2022-10-26T04:21:50;101508.75;;;14.96;100.00
42125;BME280;27787;44.594;11.046;2022-10-26T04:24:35;101510.53;;;14.95;100.00
42125;BME280;27787;44.594;11.046;2022-10-26T04:27:19;101515.84;;;14.97;100.00
42125;BME280;27787;44.594;11.046;2022-10-26T04:30:04;101522.06;;;14.96;100.00
42125;BME280;27787;44.594;11.046;2022-10-26T04:32:51;101527.38;;;14.91;100.00
42125;BME280;27787;44.594;11.046;2022-10-26T04:35:35;101523.84;;;14.94;100.00
42125;BME280;27787;44.594;11.046;2022-10-26T04:38:19;101528.28;;;15.02;100.00
42125;BME280;27787;44.594;11.046;2022-10-26T04:41:03;101538.91;;;15.10;100.00
42125;BME280;27787;44.594;11.046;2022-10-26T04:43:47;101538.06;;;15.16;100.00
42125;BME280;27787;44.594;11.046;2022-10-26T04:46:31;101535.41;;;15.16;100.00
42125;BME280;27787;44.594;11.046;2022-10-26T04:49:16;101530.97;;;15.15;100.00
42125;BME280;27787;44.594;11.046;2022-10-26T04:52:00;101538.94;;;15.15;100.00
42125;BME280;27787;44.594;11.046;2022-10-26T04:54:44;101539.81;;;15.17;100.00
42125;BME280;27787;44.594;11.046;2022-10-26T04:57:28;101531.84;;;15.15;100.00
42125;BME280;27787;44.594;11.046;2022-10-26T05:00:12;101542.50;;;15.15;100.00
42125;BME280;27787;44.594;11.046;2022-10-26T05:03:05;101550.47;;;15.14;100.00
42125;BME280;27787;44.594;11.046;2022-10-26T05:05:49;101539.81;;;15.09;100.00
42125;BME280;27787;44.594;11.046;2022-10-26T05:08:33;101534.50;;;15.04;100.00
42125;BME280;27787;44.594;11.046;2022-10-26T05:11:17;101535.38;;;15.02;100.00
42125;BME280;27787;44.594;11.046;2022-10-26T05:14:01;101538.03;;;14.99;100.00
42125;BME280;27787;44.594;11.046;2022-10-26T05:16:46;101547.78;;;15.01;100.00
42125;BME280;27787;44.594;11.046;2022-10-26T05:19:30;101546.00;;;15.03;100.00
42125;BME280;27787;44.594;11.046;2022-10-26T05:22:13;101547.78;;;15.06;100.00
42125;BME280;27787;44.594;11.046;2022-10-26T05:24:57;101542.47;;;15.08;100.00
42125;BME280;27787;44.594;11.046;2022-10-26T05:27:41;101547.81;;;15.12;100.00
42125;BME280;27787;44.594;11.046;2022-10-26T05:30:26;101549.59;;;15.13;100.00
42125;BME280;27787;44.594;11.046;2022-10-26T05:33:11;101546.91;;;15.19;100.00
42125;BME280;27787;44.594;11.046;2022-10-26T05:35:55;101560.22;;;15.16;100.00
42125;BME280;27787;44.594;11.046;2022-10-26T05:38:39;101554.00;;;15.19;100.00
42125;BME280;27787;44.594;11.046;2022-10-26T05:41:23;101550.47;;;15.14;100.00
42125;BME280;27787;44.594;11.046;2022-10-26T05:44:08;101554.88;;;15.02;100.00
42125;BME280;27787;44.594;11.046;2022-10-26T05:46:52;101558.41;;;14.91;100.00
42125;BME280;27787;44.594;11.046;2022-10-26T05:49:36;101551.31;;;14.85;100.00
42125;BME280;27787;44.594;11.046;2022-10-26T05:52:20;101557.47;;;14.83;100.00
42125;BME280;27787;44.594;11.046;2022-10-26T05:55:05;101553.94;;;14.82;100.00
42125;BME280;27787;44.594;11.046;2022-10-26T05:57:49;101562.78;;;14.83;100.00
42125;BME280;27787;44.594;11.046;2022-10-26T06:00:33;101568.09;;;14.80;100.00
42125;BME280;27787;44.594;11.046;2022-10-26T06:06:21;101580.50;;;14.79;100.00
42125;BME280;27787;44.594;11.046;2022-10-26T06:09:08;101584.09;;;14.87;100.00
42125;BME280;27787;44.594;11.046;2022-10-26T06:11:53;101591.19;;;14.88;100.00
42125;BME280;27787;44.594;11.046;2022-10-26T06:14:38;101592.06;;;14.89;100.00
42125;BME280;27787;44.594;11.046;2022-10-26T06:27:26;101612.44;;;14.85;100.00
42125;BME280;27787;44.594;11.046;2022-10-26T06:30:04;101600.94;;;14.88;100.00
42125;BME280;27787;44.594;11.046;2022-10-26T06:32:50;101611.56;;;14.88;100.00
42125;BME280;27787;44.594;11.046;2022-10-26T06:35:58;101620.41;;;14.88;100.00
42125;BME280;27787;44.594;11.046;2022-10-26T06:38:45;101619.53;;;14.97;100.00
42125;BME280;27787;44.594;11.046;2022-10-26T06:41:32;101623.13;;;15.00;100.00
42125;BME280;27787;44.594;11.046;2022-10-26T06:44:21;101635.53;;;14.98;100.00
42125;BME280;27787;44.594;11.046;2022-10-26T06:47:21;101641.75;;;15.02;100.00
42125;BME280;27787;44.594;11.046;2022-10-26T06:55:54;101646.16;;;15.08;100.00
42125;BME280;27787;44.594;11.046;2022-10-26T06:58:40;101649.72;;;14.97;100.00
42125;BME280;27787;44.594;11.046;2022-10-26T07:01:25;101648.78;;;14.92;100.00
42125;BME280;27787;44.594;11.046;2022-10-26T07:04:09;101653.22;;;14.90;100.00
42125;BME280;27787;44.594;11.046;2022-10-26T07:06:53;101648.78;;;14.89;100.00
42125;BME280;27787;44.594;11.046;2022-10-26T07:09:40;101643.50;;;14.98;100.00
42125;BME280;27787;44.594;11.046;2022-10-26T07:12:24;101654.19;;;15.14;100.00
42125;BME280;27787;44.594;11.046;2022-10-26T07:15:08;101657.78;;;15.28;100.00
42125;BME280;27787;44.594;11.046;2022-10-26T07:17:52;101669.31;;;15.39;100.00
42125;BME280;27787;44.594;11.046;2022-10-26T07:20:38;101668.44;;;15.49;100.00
42125;BME280;27787;44.594;11.046;2022-10-26T07:23:23;101687.09;;;15.54;100.00
42125;BME280;27787;44.594;11.046;2022-10-26T07:26:07;101673.78;;;15.55;100.00
42125;BME280;27787;44.594;11.046;2022-10-26T07:28:51;101685.31;;;15.57;100.00
42125;BME280;27787;44.594;11.046;2022-10-26T07:31:36;101687.06;;;15.49;100.00
42125;BME280;27787;44.594;11.046;2022-10-26T07:34:19;101697.72;;;15.46;100.00
42125;BME280;27787;44.594;11.046;2022-10-26T07:37:03;101691.50;;;15.47;100.00
42125;BME280;27787;44.594;11.046;2022-10-26T07:39:47;101691.50;;;15.49;100.00
42125;BME280;27787;44.594;11.046;2022-10-26T07:42:31;101699.50;;;15.58;100.00
42125;BME280;27787;44.594;11.046;2022-10-26T07:45:15;101701.34;;;15.67;100.00
42125;BME280;27787;44.594;11.046;2022-10-26T07:47:59;101696.03;;;15.76;100.00
42125;BME280;27787;44.594;11.046;2022-10-26T07:50:43;101708.44;;;15.83;100.00
42125;BME280;27787;44.594;11.046;2022-10-26T07:53:27;101709.34;;;15.92;100.00
42125;BME280;27787;44.594;11.046;2022-10-26T07:56:12;101707.59;;;16.04;100.00
42125;BME280;27787;44.594;11.046;2022-10-26T07:58:56;101710.22;;;16.11;100.00
42125;BME280;27787;44.594;11.046;2022-10-26T08:01:41;101713.78;;;16.19;100.00
42125;BME280;27787;44.594;11.046;2022-10-26T08:04:25;101699.56;;;16.27;100.00
42125;BME280;27787;44.594;11.046;2022-10-26T08:07:09;101697.81;;;16.30;100.00
42125;BME280;27787;44.594;11.046;2022-10-26T08:09:53;101699.56;;;16.33;100.00
42125;BME280;27787;44.594;11.046;2022-10-26T08:12:37;101699.53;;;16.40;100.00
42125;BME280;27787;44.594;11.046;2022-10-26T08:15:21;101699.56;;;16.45;100.00
42125;BME280;27787;44.594;11.046;2022-10-26T08:18:05;101696.88;;;16.49;100.00
42125;BME280;27787;44.594;11.046;2022-10-26T08:20:49;101693.28;;;16.53;100.00
42125;BME280;27787;44.594;11.046;2022-10-26T08:23:34;101685.31;;;16.60;100.00
42125;BME280;27787;44.594;11.046;2022-10-26T08:26:18;101683.50;;;16.65;100.00
42125;BME280;27787;44.594;11.046;2022-10-26T08:29:03;101680.88;;;16.69;100.00
42125;BME280;27787;44.594;11.046;2022-10-26T08:31:47;101685.28;;;16.75;100.00
42125;BME280;27787;44.594;11.046;2022-10-26T08:34:32;101686.16;;;16.83;100.00
42125;BME280;27787;44.594;11.046;2022-10-26T08:37:15;101683.44;;;16.91;100.00
42125;BME280;27787;44.594;11.046;2022-10-26T08:40:01;101681.66;;;16.99;100.00
42125;BME280;27787;44.594;11.046;2022-10-26T08:42:49;101677.19;;;17.01;100.00
42125;BME280;27787;44.594;11.046;2022-10-26T08:45:38;101680.72;;;17.04;100.00
42125;BME280;27787;44.594;11.046;2022-10-26T08:48:32;101681.59;;;17.11;100.00
42125;BME280;27787;44.594;11.046;2022-10-26T08:51:38;101680.66;;;17.18;100.00
42125;BME280;27787;44.594;11.046;2022-10-26T08:54:53;101685.97;;;17.24;100.00
42125;BME280;27787;44.594;11.046;2022-10-26T08:57:39;101686.81;;;17.29;100.00
42125;BME280;27787;44.594;11.046;2022-10-26T09:00:25;101685.03;;;17.33;100.00
42125;BME280;27787;44.594;11.046;2022-10-26T09:03:17;101694.81;;;17.35;100.00
42125;BME280;27787;44.594;11.046;2022-10-26T09:08:59;101699.19;;;17.49;100.00
42125;BME280;27787;44.594;11.046;2022-10-26T09:12:13;101699.16;;;17.52;100.00
42125;BME280;27787;44.594;11.046;2022-10-26T09:15:10;101689.34;;;17.58;100.00
42125;BME280;27787;44.594;11.046;2022-10-26T09:18:17;101691.06;;;17.64;100.00
42125;BME280;27787;44.594;11.046;2022-10-26T09:21:16;101691.94;;;17.69;100.00
42125;BME280;27787;44.594;11.046;2022-10-26T09:24:27;101686.56;;;17.75;100.00
42125;BME280;27787;44.594;11.046;2022-10-26T09:27:25;101683.88;;;17.78;100.00
42125;BME280;27787;44.594;11.046;2022-10-26T09:30:16;101686.50;;;17.84;100.00
42125;BME280;27787;44.594;11.046;2022-10-26T09:33:10;101699.81;;;17.89;100.00
42125;BME280;27787;44.594;11.046;2022-10-26T09:36:09;101697.97;;;17.98;100.00
42125;BME280;27787;44.594;11.046;2022-10-26T09:39:14;101713.91;;;18.08;100.00
42125;BME280;27787;44.594;11.046;2022-10-26T09:42:14;101711.19;;;18.14;100.00
42125;BME280;27787;44.594;11.046;2022-10-26T09:45:10;101711.13;;;18.21;100.00
42125;BME280;27787;44.594;11.046;2022-10-26T09:48:05;101708.44;;;18.24;100.00
42125;BME280;27787;44.594;11.046;2022-10-26T09:50:54;101713.66;;;18.35;100.00
42125;BME280;27787;44.594;11.046;2022-10-26T09:53:39;101716.28;;;18.43;100.00
42125;BME280;27787;44.594;11.046;2022-10-26T09:56:25;101709.09;;;18.46;100.00
42125;BME280;27787;44.594;11.046;2022-10-26T09:59:11;101708.22;;;18.46;100.00
42125;BME280;27787;44.594;11.046;2022-10-26T10:01:56;101713.53;;;18.50;100.00
42125;BME280;27787;44.594;11.046;2022-10-26T10:04:46;101707.25;;;18.54;100.00
42125;BME280;27787;44.594;11.046;2022-10-26T10:07:31;101714.28;;;18.62;100.00
42125;BME280;27787;44.594;11.046;2022-10-26T10:10:16;101717.81;;;18.70;100.00
42125;BME280;27787;44.594;11.046;2022-10-26T10:13:12;101714.19;;;18.75;100.00
42125;BME280;27787;44.594;11.046;2022-10-26T10:16:09;101708.81;;;18.77;99.65
42125;BME280;27787;44.594;11.046;2022-10-26T10:18:56;101710.63;;;18.76;99.89
42125;BME280;27787;44.594;11.046;2022-10-26T10:21:48;101712.38;;;18.77;99.87
42125;BME280;27787;44.594;11.046;2022-10-26T10:24:34;101715.88;;;18.82;100.00
42125;BME280;27787;44.594;11.046;2022-10-26T10:27:20;101715.81;;;18.87;100.00
42125;BME280;27787;44.594;11.046;2022-10-26T10:30:20;101708.66;;;18.92;99.80
42125;BME280;27787;44.594;11.046;2022-10-26T10:33:09;101706.81;;;18.96;99.97
42125;BME280;27787;44.594;11.046;2022-10-26T10:35:55;101705.84;;;19.00;100.00
42125;BME280;27787;44.594;11.046;2022-10-26T10:38:41;101710.31;;;19.02;99.85
42125;BME280;27787;44.594;11.046;2022-10-26T10:41:30;101707.56;;;19.07;99.38
42125;BME280;27787;44.594;11.046;2022-10-26T10:44:28;101709.31;;;19.09;99.17
42125;BME280;27787;44.594;11.046;2022-10-26T10:47:22;101692.31;;;19.15;98.84
42125;BME280;27787;44.594;11.046;2022-10-26T10:50:15;101703.00;;;19.17;98.33
42125;BME280;27787;44.594;11.046;2022-10-26T10:53:17;101701.13;;;19.22;98.41
42125;BME280;27787;44.594;11.046;2022-10-26T11:06:22;101691.66;;;19.62;94.40
42125;BME280;27787;44.594;11.046;2022-10-26T11:09:15;101685.28;;;19.71;93.21
42125;BME280;27787;44.594;11.046;2022-10-26T11:14:57;101682.69;;;19.63;93.15
42125;BME280;27787;44.594;11.046;2022-10-26T11:18:13;101675.47;;;19.70;92.72
42125;BME280;27787;44.594;11.046;2022-10-26T11:21:03;101671.84;;;19.72;92.39
42125;BME280;27787;44.594;11.046;2022-10-26T11:26:54;101674.50;;;19.74;92.11
42125;BME280;27787;44.594;11.046;2022-10-26T11:29:53;101675.38;;;19.74;91.55
42125;BME280;27787;44.594;11.046;2022-10-26T11:33:00;101671.78;;;19.76;91.45
42125;BME280;27787;44.594;11.046;2022-10-26T11:36:02;101665.56;;;19.75;91.50
42125;BME280;27787;44.594;11.046;2022-10-26T11:38:53;101660.13;;;19.80;91.52
42125;BME280;27787;44.594;11.046;2022-10-26T11:41:46;101667.16;;;19.87;91.95
42125;BME280;27787;44.594;11.046;2022-10-26T11:44:38;101664.28;;;19.97;91.08
42125;BME280;27787;44.594;11.046;2022-10-26T11:47:47;101660.63;;;20.03;90.94
42125;BME280;27787;44.594;11.046;2022-10-26T11:50:39;101660.59;;;20.06;90.43
42125;BME280;27787;44.594;11.046;2022-10-26T11:53:41;101662.25;;;20.12;91.75
42125;BME280;27787;44.594;11.046;2022-10-26T11:56:34;101656.78;;;20.19;90.87
42125;BME280;27787;44.594;11.046;2022-10-26T11:59:24;101658.28;;;20.34;89.67
42125;BME280;27787;44.594;11.046;2022-10-26T12:02:14;101657.28;;;20.40;88.80
42125;BME280;27787;44.594;11.046;2022-10-26T12:10:42;101650.28;;;20.32;88.59
42125;BME280;27787;44.594;11.046;2022-10-26T12:13:37;101644.00;;;20.33;89.04
42125;BME280;27787;44.594;11.046;2022-10-26T12:22:33;101646.25;;;20.58;86.64
42125;BME280;27787;44.594;11.046;2022-10-26T12:25:20;101647.13;;;20.58;86.59
42125;BME280;27787;44.594;11.046;2022-10-26T12:28:16;101640.78;;;20.63;85.91
42125;BME280;27787;44.594;11.046;2022-10-26T12:39:41;101637.03;;;20.71;84.67
42125;BME280;27787;44.594;11.046;2022-10-26T12:45:19;101635.25;;;20.69;83.98
42125;BME280;27787;44.594;11.046;2022-10-26T12:48:09;101633.47;;;20.71;84.53
42125;BME280;27787;44.594;11.046;2022-10-26T12:57:37;101632.09;;;20.91;82.18
42125;BME280;27787;44.594;11.046;2022-10-26T13:00:28;101625.75;;;20.96;81.08
42125;BME280;27787;44.594;11.046;2022-10-26T13:09:28;101640.78;;;21.04;79.00
42125;BME280;27787;44.594;11.046;2022-10-26T13:12:15;101634.09;;;21.25;74.77
42125;BME280;27787;44.594;11.046;2022-10-26T13:15:03;101625.78;;;21.34;73.77
42125;BME280;27787;44.594;11.046;2022-10-26T13:18:15;101629.16;;;21.44;73.74
42125;BME280;27787;44.594;11.046;2022-10-26T13:21:12;101629.06;;;21.47;73.76
42125;BME280;27787;44.594;11.046;2022-10-26T13:23:59;101625.16;;;21.62;73.72
42125;BME280;27787;44.594;11.046;2022-10-26T13:32:50;101622.28;;;21.69;74.92
42125;BME280;27787;44.594;11.046;2022-10-26T13:35:39;101616.22;;;21.60;74.64
42125;BME280;27787;44.594;11.046;2022-10-26T13:38:28;101614.63;;;21.53;75.24
42125;BME280;27787;44.594;11.046;2022-10-26T13:41:31;101613.63;;;21.57;76.33
42125;BME280;27787;44.594;11.046;2022-10-26T13:44:22;101613.19;;;21.75;74.70
42125;BME280;27787;44.594;11.046;2022-10-26T13:50:16;101621.91;;;21.83;73.76
42125;BME280;27787;44.594;11.046;2022-10-26T13:53:38;101622.56;;;21.93;72.41
42125;BME280;27787;44.594;11.046;2022-10-26T13:56:39;101621.03;;;21.83;73.05
42125;BME280;27787;44.594;11.046;2022-10-26T13:59:27;101618.56;;;21.75;73.64
42125;BME280;27787;44.594;11.046;2022-10-26T14:02:22;101620.16;;;21.82;73.24
42125;BME280;27787;44.594;11.046;2022-10-26T14:05:12;101624.50;;;21.88;73.02
42125;BME280;27787;44.594;11.046;2022-10-26T14:07:58;101614.75;;;21.84;73.74
42125;BME280;27787;44.594;11.046;2022-10-26T14:10:44;101621.09;;;21.81;74.63
42125;BME280;27787;44.594;11.046;2022-10-26T14:13:33;101622.00;;;21.80;74.64
42125;BME280;27787;44.594;11.046;2022-10-26T14:16:19;101621.97;;;21.82;74.40
42125;BME280;27787;44.594;11.046;2022-10-26T14:19:05;101620.03;;;21.88;73.58
42125;BME280;27787;44.594;11.046;2022-10-26T14:21:50;101628.66;;;21.99;72.71
42125;BME280;27787;44.594;11.046;2022-10-26T14:24:36;101629.25;;;22.14;70.45
42125;BME280;27787;44.594;11.046;2022-10-26T14:27:26;101628.97;;;22.23;70.82
42125;BME280;27787;44.594;11.046;2022-10-26T14:30:33;101624.09;;;22.37;70.86
42125;BME280;27787;44.594;11.046;2022-10-26T14:33:27;101616.03;;;22.37;70.16
42125;BME280;27787;44.594;11.046;2022-10-26T14:36:12;101617.13;;;22.30;70.78
42125;BME280;27787;44.594;11.046;2022-10-26T14:39:00;101619.72;;;22.33;69.92
42125;BME280;27787;44.594;11.046;2022-10-26T14:41:47;101632.25;;;22.34;69.56
42125;BME280;27787;44.594;11.046;2022-10-26T14:44:35;101625.66;;;22.46;68.92
42125;BME280;27787;44.594;11.046;2022-10-26T14:47:24;101632.94;;;22.42;69.74
42125;BME280;27787;44.594;11.046;2022-10-26T14:50:27;101629.47;;;22.37;69.69
42125;BME280;27787;44.594;11.046;2022-10-26T14:53:15;101626.97;;;22.31;70.43
42125;BME280;27787;44.594;11.046;2022-10-26T14:56:03;101631.66;;;22.23;71.21
42125;BME280;27787;44.594;11.046;2022-10-26T14:58:48;101643.47;;;22.17;71.50
42125;BME280;27787;44.594;11.046;2022-10-26T15:01:48;101640.09;;;22.09;72.11
42125;BME280;27787;44.594;11.046;2022-10-26T15:04:35;101634.97;;;21.98;72.69
42125;BME280;27787;44.594;11.046;2022-10-26T15:07:20;101630.69;;;21.91;73.14
42125;BME280;27787;44.594;11.046;2022-10-26T15:10:04;101641.63;;;21.84;73.00
42125;BME280;27787;44.594;11.046;2022-10-26T15:12:49;101636.38;;;21.79;73.73
42125;BME280;27787;44.594;11.046;2022-10-26T15:15:33;101635.59;;;21.74;73.24
42125;BME280;27787;44.594;11.046;2022-10-26T15:18:21;101641.00;;;21.72;73.83
42125;BME280;27787;44.594;11.046;2022-10-26T15:24:32;101638.47;;;21.66;74.85
42125;BME280;27787;44.594;11.046;2022-10-26T15:27:15;101643.00;;;21.64;75.25
42125;BME280;27787;44.594;11.046;2022-10-26T15:30:20;101647.41;;;21.67;75.44
42125;BME280;27787;44.594;11.046;2022-10-26T15:33:18;101642.81;;;21.72;74.72
42125;BME280;27787;44.594;11.046;2022-10-26T15:38:57;101656.38;;;21.67;74.45
42125;BME280;27787;44.594;11.046;2022-10-26T15:41:46;101659.22;;;21.60;75.09
42125;BME280;27787;44.594;11.046;2022-10-26T15:44:31;101658.50;;;21.53;76.75
42125;BME280;27787;44.594;11.046;2022-10-26T15:47:17;101661.31;;;21.47;77.72
42125;BME280;27787;44.594;11.046;2022-10-26T15:50:02;101660.63;;;21.39;77.81
42125;BME280;27787;44.594;11.046;2022-10-26T15:52:46;101658.09;;;21.31;77.99
42125;BME280;27787;44.594;11.046;2022-10-26T15:55:30;101668.13;;;21.23;77.85
42125;BME280;27787;44.594;11.046;2022-10-26T15:58:15;101660.16;;;21.18;78.09
42125;BME280;27787;44.594;11.046;2022-10-26T16:00:59;101667.41;;;21.15;77.95
42125;BME280;27787;44.594;11.046;2022-10-26T16:03:43;101666.63;;;21.10;78.13
42125;BME280;27787;44.594;11.046;2022-10-26T16:06:30;101663.97;;;21.07;78.22
42125;BME280;27787;44.594;11.046;2022-10-26T16:09:17;101670.28;;;21.06;78.48
42125;BME280;27787;44.594;11.046;2022-10-26T16:12:01;101672.16;;;21.02;78.47
42125;BME280;27787;44.594;11.046;2022-10-26T16:14:45;101676.72;;;20.99;78.57
42125;BME280;27787;44.594;11.046;2022-10-26T16:17:29;101682.13;;;20.96;79.02
42125;BME280;27787;44.594;11.046;2022-10-26T16:20:19;101674.16;;;20.91;79.26
42125;BME280;27787;44.594;11.046;2022-10-26T16:23:05;101682.25;;;20.89;79.56